Phippsburg, Maine
Current Conditions -  °F | °C
As of 3:53 PM on Friday 28 Nov 2014 (Local Time) from KIWI Reporting Station
Broken Clouds Broken Clouds  
Wind Chill: 28°   Ceiling: 5000
Heat Index: 28°   Visibility: 7mi
Dew Point: 23°   Wind: 0mph
Humidity: 81%   Direction: NA
Pressure: 30.06"   Gusts: NA
Location:  43.82°N, 69.82°W
Report Text: KIWI 282053Z AUTO 00000KT 7SM BKN050 M02/M05 A3006 RMK AO2 SNB44E52 SLP180 P0000 60000 T10221050 53007
Loading
Personal Weather Stations






























Interactive Weather Map New forecast layout! Learn more

10-Day Weather Forecast

Advertisements
Track Severe Weather on mobile